Time;durP1;ratioP1;P1;durP2;ratioP2;P2;SDS_P1;SDS_P2;PMS_P1;PMS_P2;Temp;Humidity;BMP_temperature;BMP_pressure;BME280_temperature;BME280_humidity;BME280_pressure;Samples;Min_cycle;Max_cycle;Signal;HPM_P1;HPM_P2
2023/03/14 00:01:52;;;;;;;1.80;0.60;;;14.10;96.90;;;;;;4976339;28;20698;-82
2023/03/14 00:04:17;;;;;;;0.98;0.50;;;14.00;96.80;;;;;;4995683;28;20573;-84
2023/03/14 00:06:43;;;;;;;3.73;0.70;;;14.00;97.10;;;;;;4996924;28;20180;-83
2023/03/14 00:09:09;;;;;;;1.85;0.63;;;14.00;97.00;;;;;;5015333;28;20029;-84
2023/03/14 00:11:34;;;;;;;3.10;0.60;;;13.90;96.90;;;;;;4991140;28;20695;-81
2023/03/14 00:14:00;;;;;;;3.53;0.57;;;13.90;97.10;;;;;;4980308;28;20037;-81
2023/03/14 00:16:26;;;;;;;3.03;0.80;;;13.90;96.90;;;;;;4966330;28;21445;-82
2023/03/14 00:18:52;;;;;;;1.17;0.70;;;13.80;97.20;;;;;;4998914;28;20132;-84
2023/03/14 00:21:19;;;;;;;3.13;0.60;;;13.80;97.10;;;;;;4979798;28;20540;-86
2023/03/14 00:23:45;;;;;;;1.60;0.60;;;13.70;97.10;;;;;;4995341;28;20033;-80
2023/03/14 00:26:14;;;;;;;3.58;0.73;;;13.70;97.20;;;;;;4994238;28;20029;-85
2023/03/14 00:28:41;;;;;;;2.83;1.00;;;13.60;97.10;;;;;;4979730;28;20266;-84
2023/03/14 00:31:12;;;;;;;2.72;0.70;;;13.60;97.10;;;;;;4984670;28;20108;-87
2023/03/14 00:33:38;;;;;;;2.55;0.80;;;13.60;96.20;;;;;;5005293;28;20332;-83
2023/03/14 00:36:08;;;;;;;3.93;0.87;;;13.50;97.70;;;;;;4998888;28;20128;-85
2023/03/14 00:38:35;;;;;;;6.03;0.95;;;13.50;97.40;;;;;;4996871;28;20117;-89
2023/03/14 00:41:07;;;;;;;2.50;0.75;;;13.50;97.30;;;;;;5000976;28;20457;-83
2023/03/14 00:43:33;;;;;;;3.40;0.70;;;13.50;97.60;;;;;;4979873;28;20025;-82
2023/03/14 00:45:59;;;;;;;2.22;0.70;;;13.50;97.90;;;;;;5010361;28;20286;-82
2023/03/14 00:48:24;;;;;;;3.07;0.80;;;13.40;97.90;;;;;;5005891;28;20260;-80
2023/03/14 00:50:50;;;;;;;3.38;0.90;;;13.40;97.90;;;;;;4996643;28;20168;-89
2023/03/14 00:53:16;;;;;;;2.97;0.90;;;13.40;98.00;;;;;;4980279;28;20044;-84
2023/03/14 00:55:43;;;;;;;3.17;1.00;;;13.40;98.10;;;;;;4996588;28;20033;-84
2023/03/14 00:58:11;;;;;;;3.45;0.70;;;13.40;98.20;;;;;;5011044;28;20033;-85
2023/03/14 01:00:36;;;;;;;4.22;0.90;;;13.40;98.40;;;;;;4972772;28;20509;-81
2023/03/14 01:03:02;;;;;;;4.27;0.80;;;13.40;98.40;;;;;;5014224;28;20057;-84
2023/03/14 01:05:28;;;;;;;2.22;0.80;;;13.40;98.60;;;;;;4987145;28;20017;-84
2023/03/14 01:07:54;;;;;;;2.80;0.80;;;13.40;98.60;;;;;;4997737;28;20033;-82
2023/03/14 01:10:20;;;;;;;6.53;1.27;;;13.50;98.80;;;;;;4996485;28;20025;-86
2023/03/14 01:12:45;;;;;;;3.15;1.10;;;13.50;98.70;;;;;;4995142;28;20021;-81
2023/03/14 01:15:11;;;;;;;4.90;0.70;;;13.40;98.70;;;;;;4980110;28;20104;-85
2023/03/14 01:17:40;;;;;;;4.93;1.00;;;13.40;98.90;;;;;;4996613;28;20576;-82
2023/03/14 01:20:11;;;;;;;4.65;0.85;;;13.50;98.80;;;;;;4989859;28;20539;-84
2023/03/14 01:22:40;;;;;;;3.47;0.90;;;13.50;98.80;;;;;;4999029;28;20215;-83
2023/03/14 01:25:08;;;;;;;2.95;0.80;;;13.50;98.60;;;;;;4989012;28;20018;-85
2023/03/14 01:27:34;;;;;;;4.20;0.90;;;13.50;99.10;;;;;;5010777;28;20056;-83
2023/03/14 01:30:00;;;;;;;4.20;1.00;;;13.50;99.40;;;;;;4999548;28;20022;-82
2023/03/14 01:32:25;;;;;;;3.58;0.90;;;13.50;99.10;;;;;;4961887;28;20026;-82
2023/03/14 01:34:51;;;;;;;3.63;0.90;;;13.50;99.10;;;;;;4988534;28;20239;-81
2023/03/14 01:37:17;;;;;;;3.03;0.68;;;13.50;99.00;;;;;;4977431;28;20112;-85
2023/03/14 01:39:43;;;;;;;3.83;1.00;;;13.50;99.10;;;;;;4983285;28;20036;-84
2023/03/14 01:42:09;;;;;;;4.72;0.77;;;13.50;98.90;;;;;;5014756;28;20584;-85
2023/03/14 01:44:55;;;;;;;3.95;1.00;;;13.50;99.40;;;;;;5003194;28;20815;-83
2023/03/14 01:47:21;;;;;;;3.10;0.90;;;13.50;98.60;;;;;;4984973;28;20022;-85
2023/03/14 01:50:06;;;;;;;2.85;0.73;;;13.50;99.50;;;;;;4995839;28;20052;-83
2023/03/14 01:52:37;;;;;;;2.92;0.70;;;13.50;99.00;;;;;;4991611;28;20742;-82
2023/03/14 01:55:09;;;;;;;4.18;0.80;;;13.50;99.30;;;;;;5029416;28;20041;-83
2023/03/14 01:57:36;;;;;;;3.53;1.02;;;13.50;99.20;;;;;;5011790;28;20060;-82
2023/03/14 02:00:23;;;;;;;3.07;0.83;;;13.50;99.40;;;;;;5013328;28;20021;-84
2023/03/14 02:02:53;;;;;;;3.80;0.90;;;13.50;98.20;;;;;;4972254;28;20430;-83
2023/03/14 02:05:22;;;;;;;3.97;1.10;;;13.40;99.10;;;;;;4990657;28;20039;-85
2023/03/14 02:07:56;;;;;;;5.93;1.42;;;13.50;99.10;;;;;;4990475;28;21018;-82
2023/03/14 02:10:29;;;;;;;4.00;0.90;;;13.50;98.90;;;;;;5011749;28;20579;-83
2023/03/14 02:12:56;;;;;;;4.97;0.90;;;13.40;99.20;;;;;;5013003;28;20100;-86
2023/03/14 02:15:23;;;;;;;3.75;0.90;;;13.40;99.30;;;;;;4995734;28;20021;-84
2023/03/14 02:17:49;;;;;;;4.65;1.00;;;13.40;99.30;;;;;;4986655;28;20037;-82
2023/03/14 02:20:32;;;;;;;2.40;0.68;;;13.30;99.40;;;;;;4980167;28;20117;-88
2023/03/14 02:22:58;;;;;;;3.17;0.95;;;13.30;97.30;;;;;;5010520;28;20040;-83
2023/03/14 02:25:43;;;;;;;2.37;0.67;;;13.20;98.90;;;;;;4994814;28;20323;-84
2023/03/14 02:28:11;;;;;;;3.25;0.90;;;13.20;99.10;;;;;;5015383;28;20052;-88
2023/03/14 02:30:36;;;;;;;3.33;0.80;;;13.20;99.30;;;;;;4992832;28;20399;-82
2023/03/14 02:33:12;;;;;;;2.47;0.60;;;13.20;98.90;;;;;;4978077;28;20029;-83
2023/03/14 02:35:40;;;;;;;1.23;0.70;;;13.10;98.90;;;;;;5011037;28;20021;-84
2023/03/14 02:38:10;;;;;;;2.30;0.60;;;13.10;99.80;;;;;;4992327;28;20033;-84
2023/03/14 02:40:36;;;;;;;2.80;0.80;;;13.20;99.50;;;;;;4990750;28;20561;-81
2023/03/14 02:43:01;;;;;;;1.53;0.60;;;13.10;99.60;;;;;;4994135;28;20033;-83
2023/03/14 02:45:56;;;;;;;1.85;0.60;;;13.10;99.70;;;;;;5012943;28;20560;-85
2023/03/14 02:48:26;;;;;;;2.88;0.60;;;13.10;98.80;;;;;;4954564;28;20491;-83
2023/03/14 02:50:56;;;;;;;4.87;0.50;;;13.10;99.60;;;;;;4978624;28;20104;-81
2023/03/14 02:53:36;;;;;;;2.13;0.60;;;13.10;99.80;;;;;;4984303;28;20516;-85
2023/03/14 02:56:02;;;;;;;0.73;0.50;;;13.10;99.40;;;;;;5000739;28;20071;-84
2023/03/14 02:58:28;;;;;;;1.65;0.50;;;13.00;99.90;;;;;;4980538;28;20017;-85
2023/03/14 03:00:54;;;;;;;2.38;0.68;;;13.00;99.90;;;;;;4985021;28;20059;-82
2023/03/14 03:03:20;;;;;;;2.33;0.50;;;13.00;99.90;;;;;;4987346;28;20120;-89
2023/03/14 03:05:54;;;;;;;1.17;0.50;;;13.00;99.90;;;;;;5006553;28;20022;-81
2023/03/14 03:08:24;;;;;;;0.88;0.50;;;13.00;99.90;;;;;;4985574;28;20038;-85
2023/03/14 03:10:50;;;;;;;1.23;0.45;;;12.90;99.90;;;;;;4985775;28;20108;-82
2023/03/14 03:13:16;;;;;;;1.05;0.40;;;12.90;99.90;;;;;;4996932;28;20076;-86
2023/03/14 03:15:42;;;;;;;0.90;0.50;;;12.80;99.90;;;;;;5018449;28;20682;-82
2023/03/14 03:18:08;;;;;;;1.48;0.50;;;12.70;99.90;;;;;;4998774;28;20048;-86
2023/03/14 03:20:34;;;;;;;1.70;0.50;;;12.60;99.90;;;;;;4993688;28;20628;-83
2023/03/14 03:23:00;;;;;;;0.83;0.50;;;12.60;99.90;;;;;;4966794;28;20018;-82
2023/03/14 03:25:26;;;;;;;1.55;0.60;;;12.50;99.90;;;;;;4989472;28;20651;-82
2023/03/14 03:27:52;;;;;;;1.02;0.50;;;12.50;99.90;;;;;;4997575;28;20065;-84
2023/03/14 03:30:18;;;;;;;1.48;0.70;;;12.40;99.90;;;;;;4993875;28;20160;-85
2023/03/14 03:32:44;;;;;;;1.23;0.67;;;12.30;99.90;;;;;;4994309;28;20062;-83
2023/03/14 03:35:10;;;;;;;1.20;0.63;;;12.30;99.90;;;;;;4973853;28;20025;-85
2023/03/14 03:37:36;;;;;;;1.23;0.57;;;12.30;99.90;;;;;;4959318;28;20491;-82
2023/03/14 03:40:05;;;;;;;0.80;0.50;;;12.20;99.90;;;;;;4990595;28;20500;-81
2023/03/14 03:42:32;;;;;;;1.15;0.63;;;12.20;99.90;;;;;;5010437;28;20232;-82
2023/03/14 03:44:58;;;;;;;1.63;0.70;;;12.20;99.90;;;;;;4997543;28;20553;-82
2023/03/14 03:47:24;;;;;;;2.42;0.70;;;12.20;99.90;;;;;;4977304;28;20162;-83
2023/03/14 03:49:50;;;;;;;2.10;0.50;;;12.20;99.90;;;;;;4996314;28;20041;-83
2023/03/14 03:52:15;;;;;;;1.70;0.60;;;12.20;99.90;;;;;;4969902;28;20358;-85
2023/03/14 03:54:41;;;;;;;1.75;0.60;;;12.20;99.90;;;;;;5007727;28;20038;-83
2023/03/14 03:57:07;;;;;;;1.50;0.60;;;12.10;99.90;;;;;;4972702;28;20434;-86
2023/03/14 03:59:33;;;;;;;1.93;0.63;;;12.10;99.90;;;;;;4994167;28;20219;-81
2023/03/14 04:01:58;;;;;;;2.27;0.60;;;12.10;99.90;;;;;;4996387;28;20059;-81
2023/03/14 04:04:24;;;;;;;2.80;0.80;;;12.10;99.90;;;;;;4975114;28;20565;-82
2023/03/14 04:06:49;;;;;;;1.90;0.60;;;12.10;99.90;;;;;;4989582;28;20038;-81
2023/03/14 04:09:15;;;;;;;2.25;0.70;;;12.10;99.90;;;;;;4973904;28;20030;-85
2023/03/14 04:11:41;;;;;;;3.53;0.93;;;12.10;99.90;;;;;;4987550;28;20034;-83
2023/03/14 04:14:07;;;;;;;2.05;0.90;;;12.10;99.90;;;;;;4993868;28;20503;-85
2023/03/14 04:16:33;;;;;;;2.97;0.98;;;12.20;99.90;;;;;;4992036;28;20272;-82
2023/03/14 04:19:00;;;;;;;2.20;0.93;;;12.20;99.90;;;;;;4996006;28;20471;-84
2023/03/14 04:21:26;;;;;;;2.10;1.00;;;12.20;99.90;;;;;;4991922;28;20030;-81
2023/03/14 04:23:51;;;;;;;5.15;1.40;;;12.20;99.90;;;;;;4988846;28;20518;-81
2023/03/14 04:26:17;;;;;;;3.03;1.20;;;12.30;99.90;;;;;;4971459;28;20057;-86
2023/03/14 04:28:44;;;;;;;4.07;1.25;;;12.30;99.90;;;;;;5012879;28;20112;-82
2023/03/14 04:31:11;;;;;;;2.40;1.13;;;12.30;99.90;;;;;;4989789;28;20079;-84
2023/03/14 04:33:37;;;;;;;3.60;1.40;;;12.30;99.90;;;;;;4975743;28;20333;-85
2023/03/14 04:36:04;;;;;;;3.27;1.30;;;12.40;99.90;;;;;;5018435;28;20479;-82
2023/03/14 04:38:30;;;;;;;3.80;1.23;;;12.40;99.90;;;;;;4988987;28;20025;-85
2023/03/14 04:40:56;;;;;;;3.65;1.52;;;12.40;99.90;;;;;;4974719;28;20212;-84
2023/03/14 04:43:22;;;;;;;4.28;2.22;;;12.40;99.90;;;;;;4969023;28;20063;-83
2023/03/14 04:45:48;;;;;;;4.30;1.70;;;12.40;99.90;;;;;;4980147;28;20718;-82
2023/03/14 04:48:13;;;;;;;4.10;1.52;;;12.50;99.90;;;;;;4997919;28;20230;-84
2023/03/14 04:50:39;;;;;;;3.13;1.30;;;12.50;99.90;;;;;;5013021;28;20040;-85
2023/03/14 04:53:06;;;;;;;3.35;1.40;;;12.50;99.90;;;;;;5007801;28;20092;-82
2023/03/14 04:55:32;;;;;;;3.67;1.40;;;12.50;99.90;;;;;;5003724;28;20033;-91
2023/03/14 04:57:58;;;;;;;3.10;1.30;;;12.50;99.90;;;;;;4976490;28;20116;-85
2023/03/14 05:00:24;;;;;;;3.80;1.25;;;12.60;99.90;;;;;;4996399;28;20048;-86
2023/03/14 05:02:50;;;;;;;3.72;1.40;;;12.60;99.90;;;;;;4994004;28;20170;-90
2023/03/14 05:05:16;;;;;;;3.55;1.25;;;12.60;99.90;;;;;;4981782;28;20025;-82
2023/03/14 05:07:42;;;;;;;3.50;1.00;;;12.60;99.90;;;;;;4971340;28;20437;-87
2023/03/14 05:10:08;;;;;;;2.95;1.30;;;12.50;99.90;;;;;;5014758;28;20974;-84
2023/03/14 05:12:34;;;;;;;2.05;1.02;;;12.50;99.90;;;;;;4976168;28;20090;-86
2023/03/14 05:15:01;;;;;;;2.70;1.07;;;12.50;99.90;;;;;;5007795;28;20235;-86
2023/03/14 05:17:27;;;;;;;2.88;1.10;;;12.50;99.90;;;;;;4997708;28;20037;-85
2023/03/14 05:19:52;;;;;;;1.80;1.13;;;12.50;99.90;;;;;;4976739;28;20247;-84
2023/03/14 05:22:18;;;;;;;2.92;1.20;;;12.50;99.90;;;;;;4989081;28;20091;-82
2023/03/14 05:24:44;;;;;;;2.70;1.10;;;12.50;99.90;;;;;;4981915;28;20026;-82
2023/03/14 05:27:09;;;;;;;2.15;1.00;;;12.50;99.90;;;;;;5013569;28;20041;-83
2023/03/14 05:29:35;;;;;;;3.73;1.57;;;12.50;99.90;;;;;;4968564;28;20048;-87
2023/03/14 05:32:01;;;;;;;1.90;1.20;;;12.50;99.90;;;;;;4977633;28;20310;-83
2023/03/14 05:34:26;;;;;;;2.40;1.00;;;12.40;99.90;;;;;;4974441;28;20398;-85
2023/03/14 05:36:52;;;;;;;1.50;0.98;;;12.40;99.90;;;;;;4994143;28;20083;-82
2023/03/14 05:39:18;;;;;;;1.60;1.03;;;12.40;99.90;;;;;;4996624;28;20048;-85
2023/03/14 05:41:43;;;;;;;2.60;1.10;;;12.40;99.90;;;;;;4985227;28;20025;-82
2023/03/14 05:44:09;;;;;;;2.15;1.00;;;12.40;99.90;;;;;;4976518;28;20565;-83
2023/03/14 05:46:35;;;;;;;3.60;1.20;;;12.40;99.90;;;;;;4983821;28;20087;-88
2023/03/14 05:49:00;;;;;;;2.58;1.30;;;12.40;99.90;;;;;;4990572;28;20409;-84
2023/03/14 05:51:26;;;;;;;2.53;1.23;;;12.40;99.90;;;;;;4997617;28;20493;-87
2023/03/14 05:53:51;;;;;;;1.40;0.90;;;12.40;99.90;;;;;;4998169;28;20239;-82
2023/03/14 05:56:17;;;;;;;1.50;0.97;;;12.40;99.90;;;;;;5010482;28;20483;-83
2023/03/14 05:58:43;;;;;;;1.17;0.88;;;12.40;99.90;;;;;;4960468;28;20025;-85
2023/03/14 06:01:09;;;;;;;2.73;1.27;;;12.40;99.90;;;;;;5003360;28;20495;-87
2023/03/14 06:03:35;;;;;;;1.95;1.13;;;12.40;99.90;;;;;;4997356;28;20490;-84
2023/03/14 06:06:00;;;;;;;2.60;1.10;;;12.40;99.90;;;;;;4998130;28;20071;-85
2023/03/14 06:08:26;;;;;;;2.30;1.13;;;12.40;99.90;;;;;;4984409;28;20708;-85
2023/03/14 06:10:53;;;;;;;2.88;1.30;;;12.40;99.90;;;;;;5019417;28;20037;-85
2023/03/14 06:13:19;;;;;;;1.90;1.00;;;12.40;99.90;;;;;;4968322;28;21222;-84
2023/03/14 06:15:45;;;;;;;2.33;1.10;;;12.50;99.90;;;;;;5018041;28;20029;-83
2023/03/14 06:18:12;;;;;;;1.58;1.13;;;12.50;99.90;;;;;;4990403;28;20494;-85
2023/03/14 06:20:38;;;;;;;1.58;0.98;;;12.50;99.90;;;;;;5018328;28;20364;-83
2023/03/14 06:23:05;;;;;;;2.40;1.33;;;12.50;99.90;;;;;;4990589;28;20029;-87
2023/03/14 06:25:31;;;;;;;2.45;1.00;;;12.60;99.90;;;;;;5011527;28;20245;-87
2023/03/14 06:27:57;;;;;;;2.42;1.13;;;12.60;99.90;;;;;;4987075;28;20526;-88
2023/03/14 06:30:23;;;;;;;1.70;0.93;;;12.60;99.90;;;;;;4977858;28;20026;-87
2023/03/14 06:32:48;;;;;;;1.98;1.13;;;12.60;99.90;;;;;;5000647;28;20032;-90
2023/03/14 06:35:14;;;;;;;1.80;1.10;;;12.50;99.90;;;;;;5014725;28;20678;-86
2023/03/14 06:37:40;;;;;;;2.17;1.10;;;12.50;99.90;;;;;;5015677;28;20576;-88
2023/03/14 06:40:07;;;;;;;1.27;0.90;;;12.50;99.90;;;;;;5004388;28;20091;-88
2023/03/14 06:42:33;;;;;;;2.60;1.20;;;12.40;99.90;;;;;;4990283;28;20028;-89
2023/03/14 06:44:58;;;;;;;1.50;1.00;;;12.40;99.90;;;;;;4994932;28;20702;-88
2023/03/14 06:47:24;;;;;;;2.33;1.00;;;12.40;99.90;;;;;;4994300;28;20509;-91
2023/03/14 06:49:50;;;;;;;1.88;1.10;;;12.40;99.90;;;;;;5013006;28;20110;-87
2023/03/14 06:52:15;;;;;;;1.93;1.00;;;12.30;99.90;;;;;;5002182;28;20036;-86
2023/03/14 06:54:41;;;;;;;2.17;1.17;;;12.30;99.90;;;;;;4975132;28;20025;-90
2023/03/14 06:57:07;;;;;;;1.93;1.00;;;12.40;99.90;;;;;;5002453;28;20044;-87
2023/03/14 06:59:33;;;;;;;0.70;0.70;;;12.30;99.90;;;;;;4972669;28;20479;-87
2023/03/14 07:01:58;;;;;;;1.40;0.80;;;12.20;99.90;;;;;;4995229;28;20113;-89
2023/03/14 07:04:24;;;;;;;0.60;0.60;;;12.10;99.90;;;;;;4980894;28;20020;-89
2023/03/14 07:06:50;;;;;;;1.38;0.60;;;12.10;99.90;;;;;;4985059;28;20750;-84
2023/03/14 07:09:17;;;;;;;0.80;0.80;;;12.00;99.90;;;;;;4998842;28;20104;-89
2023/03/14 07:11:43;;;;;;;0.70;0.70;;;11.90;99.90;;;;;;4977994;28;20017;-87
2023/03/14 07:14:09;;;;;;;1.35;0.80;;;11.80;99.90;;;;;;4991258;28;20100;-85
2023/03/14 07:16:35;;;;;;;0.73;0.70;;;11.80;99.90;;;;;;4989059;28;20155;-90
2023/03/14 07:19:01;;;;;;;1.02;0.70;;;11.70;99.90;;;;;;4996755;28;20116;-87
2023/03/14 07:21:27;;;;;;;1.20;0.57;;;11.60;99.90;;;;;;4983155;28;20224;-85
2023/03/14 07:23:54;;;;;;;0.50;0.50;;;11.50;99.90;;;;;;4999336;28;20025;-89
2023/03/14 07:26:20;;;;;;;1.50;0.40;;;11.40;99.90;;;;;;4965845;28;20038;-85
2023/03/14 07:28:46;;;;;;;1.13;0.52;;;11.30;99.90;;;;;;4983294;28;20108;-91
2023/03/14 07:31:12;;;;;;;1.67;0.50;;;11.20;99.90;;;;;;4961231;28;20054;-85
2023/03/14 07:33:37;;;;;;;0.93;0.40;;;11.10;99.90;;;;;;4991281;28;20195;-90
2023/03/14 07:36:03;;;;;;;1.93;0.47;;;11.00;99.90;;;;;;4999598;28;20421;-85
2023/03/14 07:38:29;;;;;;;0.30;0.30;;;10.90;99.90;;;;;;5010183;28;20388;-85
2023/03/14 07:41:03;;;;;;;0.50;0.50;;;10.90;99.90;;;;;;4981956;28;20026;-91
2023/03/14 07:43:28;;;;;;;1.23;0.33;;;10.80;99.90;;;;;;4983711;28;20446;-84
2023/03/14 07:45:54;;;;;;;1.13;0.40;;;10.80;99.90;;;;;;4978440;28;20033;-84
2023/03/14 07:48:21;;;;;;;1.37;0.60;;;10.80;99.90;;;;;;4969252;28;20035;-86
2023/03/14 07:50:51;;;;;;;0.60;0.50;;;10.80;99.90;;;;;;4997522;28;20565;-85
2023/03/14 07:53:18;;;;;;;1.95;0.70;;;10.80;99.90;;;;;;5012061;28;20051;-88
2023/03/14 07:55:44;;;;;;;1.13;0.60;;;10.80;99.90;;;;;;4997972;28;20029;-89
2023/03/14 07:58:09;;;;;;;1.55;0.60;;;10.80;99.90;;;;;;4983525;28;20522;-86
2023/03/14 08:00:36;;;;;;;1.50;0.70;;;10.80;99.90;;;;;;4959163;28;20155;-91
2023/03/14 08:03:02;;;;;;;0.93;0.68;;;10.70;99.90;;;;;;4980718;28;20551;-85
2023/03/14 08:05:28;;;;;;;2.00;0.77;;;10.70;99.90;;;;;;5004688;28;20117;-85
2023/03/14 08:07:53;;;;;;;2.00;0.60;;;10.70;99.90;;;;;;4982090;28;20250;-90
2023/03/14 08:10:22;;;;;;;2.07;0.60;;;10.70;99.90;;;;;;4980220;28;20029;-84
2023/03/14 08:12:55;;;;;;;1.55;0.73;;;10.70;99.90;;;;;;4980213;28;20792;-86
2023/03/14 08:15:21;;;;;;;0.90;0.50;;;10.70;99.90;;;;;;4978396;28;20064;-85
2023/03/14 08:17:50;;;;;;;1.08;0.50;;;10.70;99.90;;;;;;4993871;28;20028;-87
2023/03/14 08:20:22;;;;;;;1.15;0.55;;;10.80;99.90;;;;;;4975551;28;20026;-85
2023/03/14 08:22:48;;;;;;;1.23;0.67;;;10.80;99.90;;;;;;4997774;28;20113;-85
2023/03/14 08:25:13;;;;;;;1.60;0.63;;;10.80;99.90;;;;;;4993980;28;20021;-88
2023/03/14 08:27:40;;;;;;;1.13;0.47;;;10.90;99.90;;;;;;5007322;28;20037;-84
2023/03/14 08:30:09;;;;;;;0.73;0.60;;;11.00;99.90;;;;;;4985696;28;20288;-87
2023/03/14 08:32:35;;;;;;;1.05;0.63;;;11.00;99.90;;;;;;4967604;28;20029;-85
2023/03/14 08:35:00;;;;;;;1.73;0.60;;;11.10;99.90;;;;;;4980905;28;20048;-86
2023/03/14 08:37:28;;;;;;;0.90;0.60;;;11.20;99.90;;;;;;4995372;28;20037;-90
2023/03/14 08:39:54;;;;;;;0.82;0.60;;;11.20;99.90;;;;;;5014651;28;20033;-87
2023/03/14 08:42:20;;;;;;;2.00;0.70;;;11.30;99.90;;;;;;5004147;28;20029;-90
2023/03/14 08:44:45;;;;;;;1.58;0.50;;;11.40;99.90;;;;;;5004705;28;20475;-85
2023/03/14 08:47:11;;;;;;;1.20;0.50;;;11.50;99.90;;;;;;5007203;28;20538;-88
2023/03/14 08:49:37;;;;;;;0.57;0.57;;;11.60;99.90;;;;;;4982987;28;20018;-86
2023/03/14 08:52:05;;;;;;;1.07;0.70;;;11.70;99.90;;;;;;4979683;28;20025;-87
2023/03/14 08:54:31;;;;;;;0.70;0.60;;;11.70;99.90;;;;;;5016729;28;20691;-88
2023/03/14 08:56:57;;;;;;;1.83;0.60;;;11.80;99.90;;;;;;4976326;28;20056;-87
2023/03/14 08:59:23;;;;;;;1.83;0.70;;;11.80;99.90;;;;;;4988926;28;20045;-87
2023/03/14 09:01:49;;;;;;;1.73;0.60;;;11.80;99.90;;;;;;4967482;28;20175;-84
2023/03/14 09:04:15;;;;;;;0.75;0.60;;;11.80;99.90;;;;;;4994934;28;20029;-86
2023/03/14 09:06:41;;;;;;;1.27;0.60;;;11.80;99.90;;;;;;4993110;28;20025;-86
2023/03/14 09:09:07;;;;;;;1.20;0.63;;;11.80;99.90;;;;;;4998145;28;20239;-89
2023/03/14 09:11:33;;;;;;;1.73;0.60;;;11.80;99.90;;;;;;4981698;28;20075;-83
2023/03/14 09:13:59;;;;;;;1.48;0.80;;;11.80;99.90;;;;;;4993032;28;20691;-89
2023/03/14 09:16:24;;;;;;;0.97;0.60;;;11.80;99.90;;;;;;4994129;28;20026;-87
2023/03/14 09:18:53;;;;;;;1.17;0.70;;;11.80;99.90;;;;;;4961653;28;20422;-83
2023/03/14 09:21:18;;;;;;;1.53;0.53;;;11.80;99.90;;;;;;5030971;28;20052;-85
2023/03/14 09:23:45;;;;;;;0.95;0.70;;;11.70;99.90;;;;;;4992245;28;20030;-87
2023/03/14 09:26:11;;;;;;;0.95;0.70;;;11.70;99.90;;;;;;4976289;28;20028;-86
2023/03/14 09:28:37;;;;;;;1.60;0.90;;;11.60;99.90;;;;;;5015850;28;20127;-84
2023/03/14 09:31:10;;;;;;;0.75;0.75;;;11.50;99.90;;;;;;4992180;28;20053;-90
2023/03/14 09:33:36;;;;;;;1.05;0.70;;;11.50;99.90;;;;;;4967527;28;20027;-83
2023/03/14 09:36:02;;;;;;;2.73;1.20;;;11.40;99.90;;;;;;5012548;28;20112;-87
2023/03/14 09:38:28;;;;;;;2.35;1.20;;;11.40;99.90;;;;;;4978889;28;20386;-85
2023/03/14 09:40:54;;;;;;;2.83;1.45;;;11.40;99.90;;;;;;4997843;28;20123;-84
2023/03/14 09:43:22;;;;;;;2.17;1.47;;;11.40;99.90;;;;;;5000166;28;20424;-89
2023/03/14 09:45:49;;;;;;;2.88;1.60;;;11.40;99.90;;;;;;4974736;28;20513;-87
2023/03/14 09:48:22;;;;;;;3.80;1.60;;;11.40;99.90;;;;;;5005638;28;20021;-84
2023/03/14 09:50:54;;;;;;;2.60;1.50;;;11.40;99.90;;;;;;4988679;28;20490;-85
2023/03/14 09:53:25;;;;;;;1.42;0.93;;;11.30;99.90;;;;;;4977306;28;20045;-90
2023/03/14 09:55:53;;;;;;;0.87;0.70;;;11.30;99.90;;;;;;5010501;28;20484;-87
2023/03/14 09:58:23;;;;;;;0.60;0.60;;;11.20;99.90;;;;;;5004440;28;20399;-88
2023/03/14 10:00:51;;;;;;;0.47;0.40;;;11.10;99.90;;;;;;5006608;28;20491;-88
2023/03/14 10:03:23;;;;;;;0.47;0.40;;;11.00;99.90;;;;;;5003101;28;20049;-87
2023/03/14 10:05:48;;;;;;;0.80;0.60;;;10.90;99.90;;;;;;4954407;28;20095;-87
2023/03/14 10:08:14;;;;;;;1.50;0.70;;;10.80;99.90;;;;;;4975279;28;20440;-91
2023/03/14 10:10:41;;;;;;;0.70;0.50;;;10.80;99.90;;;;;;4983841;28;20107;-87
2023/03/14 10:13:16;;;;;;;1.40;0.70;;;10.70;99.90;;;;;;5013291;28;20065;-90
2023/03/14 10:15:54;;;;;;;2.08;0.80;;;10.70;99.90;;;;;;4973853;28;20364;-87
2023/03/14 10:18:22;;;;;;;1.52;0.73;;;10.80;99.90;;;;;;5001918;28;20107;-90
2023/03/14 10:20:48;;;;;;;1.45;1.00;;;10.90;99.90;;;;;;4976082;28;20021;-90
2023/03/14 10:23:17;;;;;;;1.35;0.70;;;10.90;99.90;;;;;;4992433;28;20033;-89
2023/03/14 10:25:46;;;;;;;1.33;0.53;;;11.00;99.90;;;;;;4974720;28;20034;-86
2023/03/14 10:28:48;;;;;;;1.20;0.60;;;10.90;99.90;;;;;;5005953;28;20259;-86
2023/03/14 10:31:15;;;;;;;1.05;0.50;;;11.00;99.90;;;;;;4968534;28;20392;-86
2023/03/14 10:33:41;;;;;;;0.88;0.50;;;11.00;99.90;;;;;;4957535;28;20026;-88
2023/03/14 10:36:25;;;;;;;0.63;0.52;;;11.00;99.90;;;;;;4976782;28;20061;-86
2023/03/14 10:39:16;;;;;;;0.60;0.50;;;11.00;99.90;;;;;;4950713;28;20030;-88
2023/03/14 10:41:52;;;;;;;0.73;0.40;;;10.90;99.90;;;;;;4994946;28;20026;-87
2023/03/14 10:44:22;;;;;;;0.93;0.60;;;10.90;99.90;;;;;;4979163;28;20026;-88
2023/03/14 10:46:58;;;;;;;1.50;0.55;;;10.80;99.90;;;;;;4987925;28;20037;-88
2023/03/14 10:49:35;;;;;;;0.55;0.55;;;10.80;99.90;;;;;;4995027;28;20034;-88
2023/03/14 10:52:15;;;;;;;0.90;0.70;;;10.80;99.90;;;;;;4942045;28;20327;-89
2023/03/14 10:54:46;;;;;;;1.02;0.60;;;10.70;99.90;;;;;;4975098;28;20026;-89
2023/03/14 10:57:11;;;;;;;1.92;0.70;;;10.70;99.90;;;;;;4971794;28;20026;-89
2023/03/14 10:59:41;;;;;;;1.63;0.90;;;10.70;99.90;;;;;;4984188;28;20467;-90
2023/03/14 11:02:40;;;;;;;1.10;0.90;;;10.70;99.90;;;;;;4960447;28;20204;-89
2023/03/14 11:05:27;;;;;;;0.90;0.80;;;10.70;99.90;;;;;;4966999;28;20354;-88
2023/03/14 11:08:23;;;;;;;1.27;0.80;;;10.70;99.90;;;;;;4937230;28;20341;-89
2023/03/14 11:10:54;;;;;;;2.80;1.00;;;10.70;99.90;;;;;;4965151;28;20030;-87
2023/03/14 11:13:54;;;;;;;1.43;0.77;;;10.80;99.90;;;;;;4961521;28;20030;-88
2023/03/14 11:16:51;;;;;;;1.42;0.80;;;10.90;99.90;;;;;;4978982;28;20029;-87
2023/03/14 11:19:46;;;;;;;0.88;0.65;;;10.90;99.90;;;;;;4972164;28;20038;-87
2023/03/14 11:22:37;;;;;;;1.08;0.75;;;11.10;99.90;;;;;;4949110;28;20811;-87
2023/03/14 11:25:44;;;;;;;1.45;1.00;;;11.30;99.90;;;;;;4970725;28;20109;-88
2023/03/14 11:28:28;;;;;;;0.87;0.70;;;11.40;99.90;;;;;;4972068;28;20145;-88
2023/03/14 11:31:03;;;;;;;1.00;0.85;;;11.50;99.90;;;;;;4977101;28;20767;-88
2023/03/14 11:33:37;;;;;;;1.15;0.82;;;11.50;99.90;;;;;;4973326;28;20638;-88
2023/03/14 11:36:11;;;;;;;1.65;0.77;;;11.60;99.90;;;;;;4974533;28;20123;-87
2023/03/14 11:38:50;;;;;;;1.23;0.80;;;11.60;99.90;;;;;;4954683;28;20483;-88
2023/03/14 11:41:39;;;;;;;3.77;0.70;;;11.60;99.90;;;;;;4979189;28;20050;-88
2023/03/14 11:44:19;;;;;;;1.00;0.70;;;11.60;99.90;;;;;;4962953;28;20631;-86
2023/03/14 11:47:01;;;;;;;0.80;0.60;;;11.60;99.90;;;;;;4976156;28;20519;-88
2023/03/14 11:50:00;;;;;;;1.02;0.60;;;11.50;99.90;;;;;;4967409;28;20125;-88
2023/03/14 11:52:34;;;;;;;1.25;0.63;;;11.50;99.90;;;;;;4994032;28;20030;-87
2023/03/14 11:55:04;;;;;;;0.87;0.57;;;11.40;99.90;;;;;;4949953;28;20168;-90
2023/03/14 11:57:30;;;;;;;1.00;0.50;;;11.30;99.90;;;;;;4956486;28;20057;-88
2023/03/14 12:00:19;;;;;;;0.65;0.60;;;11.30;99.90;;;;;;4956692;28;20228;-87
2023/03/14 12:02:47;;;;;;;0.87;0.60;;;11.20;99.90;;;;;;4975626;28;20431;-88
2023/03/14 12:05:31;;;;;;;2.58;0.68;;;11.10;99.90;;;;;;4965214;28;20431;-86
2023/03/14 12:08:09;;;;;;;1.27;0.50;;;11.00;99.90;;;;;;4972726;28;20061;-89
2023/03/14 12:11:02;;;;;;;1.80;0.73;;;10.90;99.90;;;;;;4968037;28;20054;-88
2023/03/14 12:13:32;;;;;;;1.42;0.60;;;10.80;99.90;;;;;;4964244;28;20018;-88
2023/03/14 12:16:00;;;;;;;3.27;0.63;;;10.70;99.90;;;;;;4974839;28;20221;-89
2023/03/14 12:18:25;;;;;;;3.25;0.60;;;10.60;99.90;;;;;;4961886;28;20118;-90
2023/03/14 12:21:00;;;;;;;1.77;0.65;;;10.50;99.90;;;;;;4948200;28;20479;-89
2023/03/14 12:23:28;;;;;;;2.20;0.60;;;10.40;99.90;;;;;;4976683;28;20451;-90
2023/03/14 12:26:17;;;;;;;1.20;0.50;;;10.40;99.90;;;;;;4968224;28;20427;-89
2023/03/14 12:28:57;;;;;;;2.53;0.73;;;10.40;99.90;;;;;;4983618;28;20062;-89
2023/03/14 12:31:31;;;;;;;3.15;0.70;;;10.30;99.90;;;;;;4994554;28;20026;-89
2023/03/14 12:34:04;;;;;;;3.35;0.63;;;10.40;99.90;;;;;;4974542;28;20046;-89
2023/03/14 12:36:51;;;;;;;2.43;0.70;;;10.50;99.90;;;;;;5004421;28;20117;-89
2023/03/14 12:39:35;;;;;;;3.05;0.85;;;10.60;99.90;;;;;;4992953;28;20033;-90
2023/03/14 12:42:29;;;;;;;1.92;0.80;;;10.70;99.90;;;;;;4954592;28;20281;-90
2023/03/14 12:45:15;;;;;;;2.67;1.00;;;10.80;99.90;;;;;;4956454;28;20312;-89
2023/03/14 12:47:51;;;;;;;2.63;0.80;;;10.90;99.90;;;;;;4973457;28;20030;-89
2023/03/14 12:50:25;;;;;;;4.03;0.73;;;11.00;99.90;;;;;;4957298;28;20025;-89
2023/03/14 12:53:00;;;;;;;4.20;0.77;;;11.00;99.90;;;;;;4956233;28;20029;-90
2023/03/14 12:55:37;;;;;;;1.90;0.60;;;11.10;99.90;;;;;;4959537;28;20030;-90
2023/03/14 12:58:05;;;;;;;2.90;0.80;;;11.20;99.90;;;;;;4929472;28;20180;-87
2023/03/14 13:00:34;;;;;;;2.53;0.70;;;11.20;99.90;;;;;;4975505;28;20347;-86